Time;durP1;ratioP1;P1;durP2;ratioP2;P2;SDS_P1;SDS_P2;PMS_P1;PMS_P2;Temp;Humidity;BMP_temperature;BMP_pressure;BME280_temperature;BME280_humidity;BME280_pressure;Samples;Min_cycle;Max_cycle;Signal;HPM_P1;HPM_P2
2023/01/17 02:22:49;;;;;;;17.10;12.70;;;;;;;4.29;94.00;98145.77;104888;1284;612545;-37
2023/01/17 02:25:29;;;;;;;21.10;14.30;;;;;;;4.73;91.89;98134.17;106412;1264;199996;-37
2023/01/17 02:28:08;;;;;;;17.00;12.20;;;;;;;4.66;91.78;98135.00;106630;1269;59861;-39
2023/01/17 02:30:38;;;;;;;18.00;13.10;;;;;;;4.66;91.16;98128.73;106597;1265;73076;-39
2023/01/17 02:33:08;;;;;;;;;;;;;;;4.66;91.08;98123.97;106615;1269;70048;-38
2023/01/17 02:35:58;;;;;;;20.50;14.00;;;;;;;4.56;91.00;98121.15;106720;1267;71522;-39
2023/01/17 02:38:38;;;;;;;20.00;12.90;;;;;;;4.47;90.96;98121.29;106802;1267;63753;-39
2023/01/17 02:41:09;;;;;;;21.80;13.10;;;;;;;4.48;90.67;98113.28;106739;1266;61670;-38
2023/01/17 02:43:36;;;;;;;17.90;14.10;;;;;;;4.48;90.55;98109.15;106825;1261;71016;-39
2023/01/17 02:46:03;;;;;;;20.70;14.10;;;;;;;4.45;90.48;98099.42;106863;1261;68803;-39
2023/01/17 02:48:32;;;;;;;20.20;13.60;;;;;;;4.41;90.58;98099.33;106920;1261;72985;-39
2023/01/17 02:51:02;;;;;;;19.90;13.20;;;;;;;4.42;90.70;98099.80;106792;1264;64244;-39
2023/01/17 02:53:51;;;;;;;22.30;14.30;;;;;;;4.47;90.33;98094.95;106856;1261;61134;-38
2023/01/17 02:56:26;;;;;;;20.30;14.50;;;;;;;4.46;90.40;98095.52;106875;1261;74180;-38
2023/01/17 02:58:56;;;;;;;22.60;14.50;;;;;;;4.42;90.44;98094.66;107512;1254;69077;-39
2023/01/17 03:01:30;;;;;;;19.80;14.00;;;;;;;4.44;90.29;98094.80;107493;1255;73976;-39
2023/01/17 03:04:24;;;;;;;20.10;14.40;;;;;;;4.49;90.07;98095.45;107481;1254;61790;-39
2023/01/17 03:07:01;;;;;;;23.90;15.50;;;;;;;4.49;90.11;98090.92;107516;1253;59739;-39
2023/01/17 03:09:29;;;;;;;18.90;13.70;;;;;;;4.43;90.18;98087.95;107494;1254;73759;-39
2023/01/17 03:11:57;;;;;;;19.90;13.40;;;;;;;4.45;90.01;98088.45;107402;1254;69401;-39
2023/01/17 03:14:24;;;;;;;19.80;13.40;;;;;;;4.51;89.93;98084.61;107549;1259;72874;-39
2023/01/17 03:16:51;;;;;;;19.90;14.40;;;;;;;4.52;89.68;98083.77;107482;1259;59720;-39
2023/01/17 03:19:18;;;;;;;24.50;15.10;;;;;;;4.50;89.83;98087.42;106714;1254;1003684;-39
2023/01/17 03:21:45;;;;;;;21.70;13.80;;;;;;;4.50;89.92;98081.98;107441;1254;75440;-39
2023/01/17 03:24:13;;;;;;;18.10;12.90;;;;;;;4.55;89.70;98083.54;107439;1254;70937;-39
2023/01/17 03:26:43;;;;;;;23.10;14.50;;;;;;;4.59;89.62;98075.13;107480;1255;74012;-37
2023/01/17 03:29:10;;;;;;;24.60;15.00;;;;;;;4.62;89.41;98073.95;107468;1254;60602;-38
2023/01/17 03:31:37;;;;;;;20.80;13.40;;;;;;;4.59;89.33;98071.67;107450;1253;59639;-37
2023/01/17 03:34:05;;;;;;;22.30;12.60;;;;;;;4.59;89.27;98074.98;107444;1254;74286;-38
2023/01/17 03:36:32;;;;;;;19.70;14.10;;;;;;;4.61;89.30;98077.02;107475;1254;70159;-39
2023/01/17 03:38:59;;;;;;;23.00;14.20;;;;;;;4.61;89.23;98064.13;107489;1254;71335;-38
2023/01/17 03:41:26;;;;;;;20.90;14.50;;;;;;;4.60;89.31;98065.10;107467;1254;60853;-38
2023/01/17 03:43:53;;;;;;;22.60;14.00;;;;;;;4.59;89.34;98060.63;107473;1254;59933;-38
2023/01/17 03:46:25;;;;;;;20.60;13.80;;;;;;;4.61;89.09;98056.61;107481;1254;74420;-38
2023/01/17 03:48:52;;;;;;;23.70;15.90;;;;;;;4.62;89.12;98056.95;107487;1260;70013;-38
2023/01/17 03:51:19;;;;;;;23.30;14.90;;;;;;;4.61;89.07;98059.05;107497;1254;73651;-38
2023/01/17 03:53:46;;;;;;;21.10;13.60;;;;;;;4.59;89.23;98055.41;107477;1254;63059;-38
2023/01/17 03:56:14;;;;;;;18.70;13.00;;;;;;;4.63;89.12;98056.71;107497;1254;60279;-38
2023/01/17 03:58:41;;;;;;;19.90;13.80;;;;;;;4.64;88.96;98058.21;107511;1254;73556;-38
2023/01/17 04:01:08;;;;;;;26.10;15.00;;;;;;;4.62;89.05;98052.63;107508;1254;68264;-38
2023/01/17 04:03:35;;;;;;;22.10;14.20;;;;;;;4.59;89.09;98057.50;107460;1254;73802;-38
2023/01/17 04:06:03;;;;;;;19.80;12.50;;;;;;;4.60;89.14;98057.34;107445;1254;61347;-38
2023/01/17 04:08:30;;;;;;;21.10;13.20;;;;;;;4.65;88.95;98058.05;107513;1254;61048;-38
2023/01/17 04:10:57;;;;;;;27.10;15.00;;;;;;;4.66;89.00;98052.80;107443;1253;74679;-38
2023/01/17 04:13:24;;;;;;;24.70;14.40;;;;;;;4.63;88.99;98062.71;107479;1257;69410;-38
2023/01/17 04:15:51;;;;;;;20.10;13.30;;;;;;;4.60;89.21;98059.27;107486;1254;74434;-38
2023/01/17 04:18:19;;;;;;;19.20;13.60;;;;;;;4.63;89.04;98058.48;107434;1259;63378;-38
2023/01/17 04:20:46;;;;;;;23.20;14.50;;;;;;;4.66;89.01;98050.27;107414;1254;60542;-38
2023/01/17 04:23:13;;;;;;;26.20;15.90;;;;;;;4.65;89.01;98056.38;107476;1254;72876;-38
2023/01/17 04:25:40;;;;;;;22.90;13.70;;;;;;;4.62;89.18;98047.86;107458;1254;70129;-38
2023/01/17 04:28:08;;;;;;;19.50;13.60;;;;;;;4.64;89.20;98051.60;107460;1254;73523;-38
2023/01/17 04:30:36;;;;;;;24.00;13.80;;;;;;;4.70;88.95;98053.79;107425;1259;60902;-38
2023/01/17 04:33:03;;;;;;;25.40;15.80;;;;;;;4.70;89.08;98056.55;107466;1254;62634;-38
2023/01/17 04:35:30;;;;;;;22.80;14.60;;;;;;;4.67;89.08;98057.52;107442;1259;72065;-38
2023/01/17 04:37:57;;;;;;;24.30;14.70;;;;;;;4.64;89.22;98045.86;107504;1254;70791;-38
2023/01/17 04:40:25;;;;;;;22.60;15.10;;;;;;;4.66;89.19;98053.27;107474;1254;74569;-38
2023/01/17 04:42:53;;;;;;;23.40;15.40;;;;;;;4.70;89.20;98053.12;107523;1254;59740;-38
2023/01/17 04:45:20;;;;;;;28.00;16.70;;;;;;;4.69;89.31;98049.35;107507;1254;61044;-38
2023/01/17 04:47:47;;;;;;;25.10;14.90;;;;;;;4.68;89.25;98052.55;107482;1253;74156;-38
2023/01/17 04:50:15;;;;;;;22.90;14.60;;;;;;;4.69;89.28;98054.70;107525;1254;69873;-38
2023/01/17 04:52:42;;;;;;;21.70;15.40;;;;;;;4.74;89.18;98052.11;107592;1254;72030;-38
2023/01/17 04:55:09;;;;;;;27.50;16.20;;;;;;;4.75;89.29;98049.69;107518;1254;60629;-38
2023/01/17 04:57:37;;;;;;;26.20;16.10;;;;;;;4.75;89.21;98058.66;107465;1254;60121;-38
2023/01/17 05:00:04;;;;;;;23.60;15.90;;;;;;;4.74;89.27;98048.89;107485;1253;75095;-38
2023/01/17 05:02:31;;;;;;;26.90;15.60;;;;;;;4.76;89.11;98042.65;107503;1259;67882;-38
2023/01/17 05:04:59;;;;;;;23.90;16.30;;;;;;;4.82;89.06;98046.61;107466;1254;74395;-38
2023/01/17 05:07:26;;;;;;;29.70;17.00;;;;;;;4.82;89.04;98041.63;107485;1259;60522;-38
2023/01/17 05:09:53;;;;;;;24.70;16.50;;;;;;;4.82;89.07;98039.62;107495;1254;59477;-38
2023/01/17 05:12:20;;;;;;;27.20;14.90;;;;;;;4.83;88.97;98041.11;107504;1254;74042;-38
2023/01/17 05:14:47;;;;;;;22.00;14.90;;;;;;;4.82;88.81;98028.12;107521;1254;68386;-38
2023/01/17 05:17:14;;;;;;;25.50;17.00;;;;;;;4.86;88.89;98033.71;107501;1253;74080;-38
2023/01/17 05:19:41;;;;;;;26.90;17.50;;;;;;;4.88;89.06;98035.30;107513;1254;61675;-38
2023/01/17 05:22:15;;;;;;;22.90;15.00;;;;;;;4.85;89.18;98035.84;107445;1254;59492;-38
2023/01/17 05:24:43;;;;;;;25.20;16.00;;;;;;;4.89;89.11;98035.52;107485;1254;72281;-38
2023/01/17 05:27:10;;;;;;;23.50;16.40;;;;;;;4.91;89.10;98040.41;107549;1254;69886;-38
2023/01/17 05:29:38;;;;;;;30.30;18.80;;;;;;;4.90;89.18;98039.77;107503;1257;74056;-38
2023/01/17 05:32:05;;;;;;;28.00;16.30;;;;;;;4.90;89.22;98038.93;107438;1254;63461;-38
2023/01/17 05:34:33;;;;;;;24.70;14.60;;;;;;;4.92;89.26;98035.14;107448;1254;60393;-38
2023/01/17 05:37:00;;;;;;;25.40;16.80;;;;;;;4.98;88.90;98030.03;107487;1254;73897;-38
2023/01/17 05:39:29;;;;;;;27.50;18.30;;;;;;;4.99;88.86;98043.18;107451;1254;68953;-38
2023/01/17 05:41:58;;;;;;;27.70;18.00;;;;;;;4.97;88.89;98037.85;107488;1254;73237;-38
2023/01/17 05:44:26;;;;;;;23.90;15.50;;;;;;;4.92;89.09;98039.29;107498;1255;61752;-38
2023/01/17 05:46:54;;;;;;;25.80;16.40;;;;;;;4.96;89.20;98035.83;107459;1254;62329;-38
2023/01/17 05:49:22;;;;;;;29.70;17.80;;;;;;;5.02;88.94;98045.23;107492;1254;72978;-39
2023/01/17 05:51:49;;;;;;;29.80;19.00;;;;;;;5.02;89.05;98054.29;107468;1254;70067;-39
2023/01/17 05:54:18;;;;;;;30.20;18.60;;;;;;;5.02;89.04;98055.35;107483;1254;74316;-39
2023/01/17 05:56:45;;;;;;;25.20;16.50;;;;;;;5.04;88.88;98054.79;107419;1254;64009;-39
2023/01/17 05:59:12;;;;;;;32.10;18.00;;;;;;;5.04;88.54;98053.31;107453;1254;60149;-39
2023/01/17 06:01:40;;;;;;;27.90;18.90;;;;;;;5.09;88.60;98062.17;107513;1259;74660;-39
2023/01/17 12:33:44;;;;;;;33.30;20.80;;;;;;;6.50;94.31;97855.94;104964;1282;616194;-40
2023/01/17 12:36:33;;;;;;;34.50;22.00;;;;;;;6.96;91.85;97854.95;106434;1264;281632;-39
2023/01/17 12:39:04;;;;;;;35.80;23.60;;;;;;;6.93;90.96;97855.77;106755;1263;61557;-40
2023/01/17 12:41:37;;;;;;;39.20;22.30;;;;;;;6.88;90.74;97854.55;106778;1268;73205;-40
2023/01/17 12:44:04;;;;;;;36.80;20.30;;;;;;;6.92;90.25;97853.74;106947;1260;68448;-39
2023/01/17 12:46:58;;;;;;;41.60;23.50;;;;;;;6.97;89.57;97849.32;106948;1260;73664;-40
2023/01/17 12:49:35;;;;;;;40.30;24.50;;;;;;;6.98;88.75;97849.41;106957;1260;59169;-40
2023/01/17 12:52:18;;;;;;;39.60;23.90;;;;;;;6.93;88.76;97847.92;106965;1261;61352;-40
2023/01/17 12:54:48;;;;;;;39.50;22.20;;;;;;;6.90;88.45;97846.81;106939;1265;72180;-39
2023/01/17 12:57:31;;;;;;;35.70;22.80;;;;;;;6.90;88.10;97845.27;106996;1260;69907;-40
2023/01/17 13:00:28;;;;;;;41.90;25.50;;;;;;;6.89;88.02;97846.27;107033;1261;73862;-40
2023/01/17 13:03:08;;;;;;;40.60;25.40;;;;;;;6.86;88.34;97840.63;107006;1261;60632;-40
2023/01/17 13:05:37;;;;;;;39.70;23.50;;;;;;;6.84;88.49;97835.29;107038;1266;61319;-40
2023/01/17 13:08:14;;;;;;;43.40;25.90;;;;;;;6.87;88.39;97831.69;107064;1261;74185;-40
2023/01/17 13:11:06;;;;;;;41.60;25.70;;;;;;;6.81;88.46;97817.33;107011;1261;69505;-40
2023/01/17 13:13:34;;;;;;;41.00;25.30;;;;;;;6.83;88.57;97828.50;107024;1261;73926;-40
2023/01/17 13:16:27;;;;;;;43.00;23.90;;;;;;;6.79;88.64;97828.30;107062;1261;62967;-40
2023/01/17 13:18:54;;;;;;;38.30;24.90;;;;;;;6.82;88.67;97820.34;107043;1260;60274;-40
2023/01/17 13:21:29;;;;;;;44.00;27.40;;;;;;;6.81;88.75;97826.50;107051;1260;74104;-40
2023/01/17 13:23:57;;;;;;;42.80;26.40;;;;;;;6.80;88.84;97818.92;107040;1266;68289;-40
2023/01/17 13:26:49;;;;;;;41.30;24.10;;;;;;;6.77;88.59;97822.30;107060;1260;72124;-40
2023/01/17 13:30:04;;;;;;;43.20;26.00;;;;;;;6.77;88.61;97821.45;107287;1260;63109;-40
2023/01/17 13:32:50;;;;;;;41.20;26.10;;;;;;;6.75;88.69;97818.83;106839;1258;61423;-40
2023/01/17 13:35:21;;;;;;;50.30;28.10;;;;;;;6.69;88.89;97820.45;107171;1258;74254;-40
2023/01/17 13:38:01;;;;;;;47.10;27.00;;;;;;;6.65;89.16;97822.72;107291;1260;68522;-40
2023/01/17 13:40:41;;;;;;;41.40;25.80;;;;;;;6.66;89.00;97824.34;107304;1260;73928;-40
2023/01/17 13:43:12;;;;;;;;;;;;;;;6.68;88.94;97823.98;107318;1257;61388;-40
2023/01/17 13:45:39;;;;;;;46.00;27.90;;;;;;;6.62;89.34;97819.83;107352;1257;60671;-40
2023/01/17 13:48:13;;;;;;;41.00;26.10;;;;;;;6.56;89.68;97812.02;107289;1257;74044;-40
2023/01/17 13:50:40;;;;;;;42.90;24.70;;;;;;;6.60;89.39;97807.89;107303;1260;68846;-41
2023/01/17 13:53:26;;;;;;;50.50;28.00;;;;;;;6.65;89.22;97810.17;107320;1260;73858;-40
2023/01/17 13:56:17;;;;;;;47.00;28.50;;;;;;;6.65;89.17;97814.87;107342;1258;60418;-40
2023/01/17 13:58:49;;;;;;;49.70;28.50;;;;;;;6.59;89.55;97817.50;107273;1258;61315;-41
2023/01/17 14:01:21;;;;;;;46.10;25.80;;;;;;;6.55;89.68;97814.63;107296;1257;74089;-40
2023/01/17 14:03:48;;;;;;;48.10;27.80;;;;;;;6.58;89.62;97815.41;107315;1258;70068;-40
2023/01/17 14:06:34;;;;;;;45.70;29.00;;;;;;;6.58;89.65;97817.11;107293;1257;73707;-40
2023/01/17 14:09:11;;;;;;;48.10;25.80;;;;;;;6.55;89.88;97814.86;107242;1258;60847;-40
2023/01/17 14:11:51;;;;;;;49.00;26.40;;;;;;;6.51;90.21;97817.20;107271;1256;61321;-40
2023/01/17 20:18:21;;;;;;;33.10;19.60;;;;;;;5.93;95.00;98058.95;104946;1286;612662;-38
2023/01/17 20:20:48;;;;;;;30.50;18.80;;;;;;;6.35;93.04;98059.27;106412;1267;218319;-38
2023/01/17 20:23:23;;;;;;;36.60;21.10;;;;;;;6.31;93.18;98054.44;106647;1264;62635;-38
2023/01/17 20:25:57;;;;;;;34.40;21.20;;;;;;;6.27;93.54;98051.55;107122;1257;71020;-38
2023/01/17 20:28:25;;;;;;;31.40;18.90;;;;;;;6.29;93.32;98051.19;107085;1257;69872;-39
2023/01/17 20:30:54;;;;;;;28.60;19.70;;;;;;;6.35;92.94;98050.91;107038;1260;71715;-38
2023/01/17 20:33:22;;;;;;;35.00;21.00;;;;;;;6.37;92.58;98049.39;107087;1258;62096;-38
2023/01/17 20:35:49;;;;;;;31.40;20.30;;;;;;;6.34;92.45;98047.12;107051;1257;61110;-38
2023/01/17 20:38:44;;;;;;;32.40;19.20;;;;;;;6.28;92.22;98054.41;107079;1257;72380;-38
2023/01/17 20:41:22;;;;;;;31.80;18.00;;;;;;;6.28;91.69;98059.88;107136;1262;70429;-38
2023/01/17 20:43:51;;;;;;;31.40;19.70;;;;;;;6.30;91.43;98061.66;107291;1258;74081;-39
2023/01/17 20:46:20;;;;;;;33.90;19.50;;;;;;;6.28;90.97;98069.25;107150;1262;59480;-38
2023/01/17 20:48:50;;;;;;;33.80;21.20;;;;;;;6.24;90.94;98075.41;107114;1263;61523;-38
2023/01/17 20:51:17;;;;;;;31.30;19.20;;;;;;;6.20;90.90;98073.65;107228;1257;73550;-38
2023/01/17 20:53:45;;;;;;;32.20;20.00;;;;;;;6.20;90.57;98084.65;107128;1257;68956;-39
2023/01/17 20:56:13;;;;;;;32.60;20.00;;;;;;;6.22;90.32;98084.07;107118;1260;73808;-38
2023/01/17 20:58:41;;;;;;;31.40;20.00;;;;;;;6.22;90.37;98082.30;107105;1263;59612;-39
2023/01/17 21:01:09;;;;;;;38.50;21.50;;;;;;;6.21;90.32;98084.13;107093;1257;59870;-38
2023/01/17 21:03:37;;;;;;;34.00;20.20;;;;;;;6.18;90.32;98086.86;107128;1257;73098;-39
2023/01/17 21:06:06;;;;;;;32.80;19.20;;;;;;;6.20;90.06;98084.43;107096;1257;70189;-38
2023/01/17 21:08:35;;;;;;;31.70;19.30;;;;;;;6.27;89.74;98083.53;107258;1257;74917;-39
2023/01/17 21:11:02;;;;;;;32.70;19.70;;;;;;;6.30;89.64;98084.73;107082;1257;62542;-39
2023/01/17 21:13:30;;;;;;;33.90;21.50;;;;;;;6.30;89.21;98084.58;107095;1257;62547;-39
2023/01/17 21:15:57;;;;;;;33.60;19.30;;;;;;;6.28;88.88;98086.25;107112;1257;73483;-39
2023/01/17 21:18:25;;;;;;;28.80;17.80;;;;;;;6.29;88.71;98079.41;107172;1257;69379;-39
2023/01/17 21:20:52;;;;;;;30.50;19.50;;;;;;;6.29;88.15;98070.04;107198;1257;74816;-38
2023/01/17 21:23:22;;;;;;;29.80;20.20;;;;;;;6.27;87.93;98068.85;107053;1259;59653;-39
2023/01/17 21:25:52;;;;;;;35.20;21.30;;;;;;;6.23;87.83;98067.19;107073;1257;61429;-39
2023/01/17 21:28:23;;;;;;;32.50;19.40;;;;;;;6.18;87.61;98067.33;107059;1263;74686;-39
2023/01/17 21:30:51;;;;;;;30.60;18.80;;;;;;;6.16;87.33;98066.91;107094;1257;70163;-39
2023/01/17 21:33:18;;;;;;;33.00;19.90;;;;;;;6.19;86.98;98060.80;107141;1257;71763;-39
2023/01/17 21:35:45;;;;;;;32.60;20.20;;;;;;;6.17;86.90;98066.16;107118;1257;61286;-39
2023/01/17 21:38:13;;;;;;;36.90;23.00;;;;;;;6.15;86.92;98065.35;107075;1258;61376;-39
2023/01/17 21:40:41;;;;;;;35.00;20.70;;;;;;;6.11;86.82;98064.98;107079;1256;71709;-39
2023/01/17 21:43:08;;;;;;;32.60;19.50;;;;;;;6.09;86.67;98066.88;107132;1257;69322;-39
2023/01/17 21:45:39;;;;;;;28.80;20.00;;;;;;;6.10;86.53;98067.89;107229;1262;72920;-39
2023/01/17 21:48:10;;;;;;;33.90;21.60;;;;;;;6.07;86.69;98065.24;107124;1259;60659;-39
2023/01/17 21:50:38;;;;;;;36.20;21.70;;;;;;;6.04;86.71;98063.80;107092;1257;62038;-39
2023/01/17 21:53:06;;;;;;;31.90;20.00;;;;;;;5.97;86.79;98064.93;107060;1257;74460;-39
